createdAt,value
2023-05-10T00:01:14.487Z,21.36
2023-05-10T00:03:41.412Z,21.28
2023-05-10T00:06:08.044Z,21.26
2023-05-10T00:08:34.628Z,21.37
2023-05-10T00:11:01.272Z,21.24
2023-05-10T00:13:27.896Z,21.13
2023-05-10T00:15:54.563Z,21.03
2023-05-10T00:18:21.146Z,21.11
2023-05-10T00:20:47.862Z,21.01
2023-05-10T00:23:14.433Z,21.11
2023-05-10T00:25:41.062Z,21.05
2023-05-10T00:28:07.643Z,21.05
2023-05-10T00:30:34.184Z,20.88
2023-05-10T00:33:02.012Z,21.07
2023-05-10T00:35:28.584Z,21.11
2023-05-10T00:37:55.426Z,21.09
2023-05-10T00:40:21.969Z,21.08
2023-05-10T00:42:53.265Z,21.10
2023-05-10T00:45:20.149Z,21.15
2023-05-10T00:47:46.939Z,21.15
2023-05-10T00:50:14.668Z,21.21
2023-05-10T00:52:42.584Z,21.20
2023-05-10T00:55:13.056Z,21.04
2023-05-10T00:57:39.879Z,21.06
2023-05-10T01:00:07.016Z,21.18
2023-05-10T01:02:35.322Z,21.18
2023-05-10T01:05:04.445Z,21.06
2023-05-10T01:07:31.008Z,21.12
2023-05-10T01:09:58.474Z,21.01
2023-05-10T01:12:25.225Z,21.02
2023-05-10T01:14:52.154Z,21.01
2023-05-10T01:17:19.140Z,20.94
2023-05-10T01:19:45.724Z,20.99
2023-05-10T01:22:24.496Z,20.98
2023-05-10T01:25:20.886Z,20.93
2023-05-10T01:28:15.441Z,21.08
2023-05-10T01:31:22.885Z,21.03
2023-05-10T01:34:08.930Z,20.98
2023-05-10T01:36:52.213Z,20.94
2023-05-10T01:39:43.789Z,20.89
2023-05-10T01:42:20.787Z,20.94
2023-05-10T01:44:54.715Z,21.01
2023-05-10T01:47:31.842Z,20.99
2023-05-10T01:50:03.783Z,21.03
2023-05-10T01:52:38.793Z,21.04
2023-05-10T01:55:17.478Z,20.98
2023-05-10T01:57:47.382Z,21.02
2023-05-10T02:00:16.145Z,21.06
2023-05-10T02:02:46.749Z,20.95
2023-05-10T02:05:16.175Z,20.98
2023-05-10T02:07:44.053Z,20.87
2023-05-10T02:10:12.467Z,20.99
2023-05-10T02:12:43.158Z,21.00
2023-05-10T02:15:12.542Z,20.89
2023-05-10T02:17:40.580Z,20.85
2023-05-10T02:20:08.744Z,20.83
2023-05-10T02:22:37.539Z,20.85
2023-05-10T02:25:05.038Z,20.90
2023-05-10T02:27:32.276Z,20.91
2023-05-10T02:29:59.471Z,20.95
2023-05-10T02:32:28.172Z,20.91
2023-05-10T02:34:56.517Z,20.97
2023-05-10T02:37:23.465Z,20.98
2023-05-10T02:39:52.989Z,20.92
2023-05-10T02:42:23.632Z,20.85
2023-05-10T02:44:53.754Z,20.83
2023-05-10T02:47:20.844Z,20.92
2023-05-10T02:49:49.221Z,20.96
2023-05-10T02:52:24.080Z,21.01
2023-05-10T02:54:55.313Z,20.85
2023-05-10T02:57:28.544Z,20.82
2023-05-10T02:59:55.572Z,20.84
2023-05-10T03:02:22.345Z,20.90
2023-05-10T03:04:49.007Z,20.80
2023-05-10T03:07:16.132Z,20.77
2023-05-10T03:09:43.394Z,20.77
2023-05-10T03:12:28.183Z,20.85
2023-05-10T03:14:57.269Z,20.66
2023-05-10T03:17:35.801Z,20.73
2023-05-10T03:20:10.725Z,20.75
2023-05-10T03:22:48.852Z,20.74
2023-05-10T03:25:17.556Z,20.74
2023-05-10T03:27:46.207Z,20.65
2023-05-10T03:30:14.012Z,20.69
2023-05-10T03:32:41.705Z,20.61
2023-05-10T03:35:09.952Z,20.55
2023-05-10T03:37:37.486Z,20.47
2023-05-10T03:40:04.733Z,20.65
2023-05-10T03:42:33.784Z,20.31
2023-05-10T03:45:00.330Z,20.50
2023-05-10T03:47:27.045Z,20.55
2023-05-10T03:49:53.669Z,20.59
2023-05-10T03:52:20.306Z,20.62
2023-05-10T03:54:47.271Z,20.70
2023-05-10T03:57:13.797Z,20.64
2023-05-10T03:59:40.309Z,20.61
2023-05-10T04:02:06.960Z,20.57
2023-05-10T04:04:33.503Z,20.54
2023-05-10T04:07:00.231Z,20.65
2023-05-10T04:09:26.882Z,20.55
2023-05-10T04:11:53.444Z,20.34
2023-05-10T04:14:19.982Z,20.41
2023-05-10T04:16:46.591Z,20.59
2023-05-10T04:19:13.177Z,20.49
2023-05-10T04:21:39.690Z,20.50
2023-05-10T04:24:06.413Z,20.57
2023-05-10T04:26:32.942Z,20.51
2023-05-10T04:28:59.508Z,20.59
2023-05-10T04:31:26.987Z,20.74
2023-05-10T04:33:53.862Z,20.60
2023-05-10T04:36:20.527Z,20.56
2023-05-10T04:38:47.046Z,20.15
2023-05-10T04:41:13.696Z,20.27
2023-05-10T04:43:40.244Z,20.23
2023-05-10T04:46:08.227Z,20.25
2023-05-10T04:48:34.971Z,20.45
2023-05-10T04:51:01.804Z,20.32
2023-05-10T04:53:28.398Z,20.09
2023-05-10T04:55:54.982Z,20.06
2023-05-10T04:58:21.824Z,20.06
2023-05-10T05:00:48.373Z,19.86
2023-05-10T05:03:14.958Z,19.88
2023-05-10T05:05:41.534Z,19.76
2023-05-10T05:08:08.077Z,19.86
2023-05-10T05:10:34.637Z,19.90
2023-05-10T05:13:01.263Z,19.81
2023-05-10T05:15:28.369Z,19.90
2023-05-10T05:17:54.915Z,19.95
2023-05-10T05:20:21.561Z,20.08
2023-05-10T05:22:50.600Z,19.92
2023-05-10T05:25:17.450Z,19.81
2023-05-10T05:27:43.972Z,20.02
2023-05-10T05:30:10.962Z,19.84
2023-05-10T05:32:37.537Z,19.80
2023-05-10T05:35:04.325Z,19.22
2023-05-10T05:37:30.857Z,19.36
2023-05-10T05:39:57.978Z,19.28
2023-05-10T05:42:24.568Z,19.40
2023-05-10T05:44:51.140Z,19.14
2023-05-10T05:47:18.397Z,19.24
2023-05-10T05:49:46.790Z,18.99
2023-05-10T05:52:13.678Z,19.35
2023-05-10T05:54:40.645Z,19.52
2023-05-10T05:57:07.633Z,19.54
2023-05-10T05:59:34.307Z,19.52
2023-05-10T06:02:01.561Z,19.48
2023-05-10T06:04:28.317Z,19.54
2023-05-10T06:06:54.930Z,19.48
2023-05-10T06:09:21.587Z,19.13
2023-05-10T06:11:48.149Z,19.32
2023-05-10T06:14:14.826Z,19.44
2023-05-10T06:16:41.549Z,19.48
2023-05-10T06:19:08.278Z,19.54
2023-05-10T06:21:34.828Z,19.60
2023-05-10T06:24:01.411Z,19.54
2023-05-10T06:26:27.985Z,19.66
2023-05-10T06:28:54.524Z,19.71
2023-05-10T06:31:21.052Z,19.73
2023-05-10T06:33:47.811Z,19.88
2023-05-10T06:36:14.410Z,19.88
2023-05-10T06:38:41.059Z,19.93
2023-05-10T06:41:07.688Z,20.10
2023-05-10T06:43:34.192Z,20.13
2023-05-10T06:46:00.767Z,20.29
2023-05-10T06:48:27.594Z,20.32
2023-05-10T06:50:54.203Z,20.48
2023-05-10T06:53:20.762Z,20.62
2023-05-10T06:55:47.461Z,20.56
2023-05-10T06:58:14.035Z,20.47
2023-05-10T07:00:41.553Z,20.42
2023-05-10T07:03:08.316Z,20.35
2023-05-10T07:05:35.130Z,20.18
2023-05-10T07:08:02.042Z,20.29
2023-05-10T07:10:28.623Z,20.52
2023-05-10T07:12:55.289Z,20.65
2023-05-10T07:15:21.971Z,20.22
2023-05-10T07:17:48.587Z,20.34
2023-05-10T07:20:15.402Z,20.48
2023-05-10T07:22:42.017Z,20.59
2023-05-10T07:25:08.719Z,20.27
2023-05-10T07:27:35.501Z,20.45
2023-05-10T07:30:02.520Z,20.76
2023-05-10T07:32:29.268Z,20.73
2023-05-10T07:34:56.026Z,20.92
2023-05-10T07:37:22.633Z,20.82
2023-05-10T07:39:49.155Z,20.68
2023-05-10T07:42:15.691Z,20.84
2023-05-10T07:44:42.739Z,20.94
2023-05-10T07:47:09.372Z,20.97
2023-05-10T07:49:36.662Z,20.98
2023-05-10T07:52:04.255Z,21.25
2023-05-10T07:54:31.034Z,21.16
2023-05-10T07:56:57.608Z,21.23
2023-05-10T07:59:24.157Z,21.51
2023-05-10T08:01:50.795Z,21.39
2023-05-10T08:04:17.354Z,21.40
2023-05-10T08:06:43.930Z,21.57
2023-05-10T08:09:10.606Z,21.50
2023-05-10T08:11:37.297Z,21.40
2023-05-10T08:14:03.902Z,21.66
2023-05-10T08:16:30.536Z,21.76
2023-05-10T08:18:57.235Z,21.87
2023-05-10T08:21:23.853Z,22.01
2023-05-10T08:23:50.595Z,22.18
2023-05-10T08:26:17.199Z,21.99
2023-05-10T08:28:43.716Z,22.35
2023-05-10T08:31:10.329Z,21.90
2023-05-10T08:33:36.880Z,22.01
2023-05-10T08:36:03.477Z,22.06
2023-05-10T08:38:30.068Z,22.14
2023-05-10T08:41:00.068Z,22.17
2023-05-10T08:43:29.929Z,21.96
2023-05-10T08:45:57.938Z,22.14
2023-05-10T08:48:25.797Z,21.87
2023-05-10T08:50:58.515Z,21.80
2023-05-10T08:53:28.895Z,21.97
2023-05-10T08:55:56.514Z,21.99
2023-05-10T08:58:23.203Z,22.21
2023-05-10T09:00:51.968Z,22.27
2023-05-10T09:03:19.236Z,22.20
2023-05-10T09:05:46.097Z,21.96
2023-05-10T09:08:13.932Z,22.14
2023-05-10T09:10:41.200Z,22.09
2023-05-10T09:13:09.966Z,21.77
2023-05-10T09:15:36.594Z,21.73
2023-05-10T09:18:03.498Z,21.96
2023-05-10T09:20:30.115Z,22.05
2023-05-10T09:22:56.736Z,22.03
2023-05-10T09:25:23.635Z,22.10
2023-05-10T09:27:50.403Z,22.40
2023-05-10T09:30:18.965Z,22.38
2023-05-10T09:32:47.468Z,22.59
2023-05-10T09:35:16.093Z,22.73
2023-05-10T09:37:46.832Z,22.92
2023-05-10T09:40:24.182Z,22.92
2023-05-10T09:43:06.956Z,22.47
2023-05-10T09:45:37.728Z,22.36
2023-05-10T09:48:05.370Z,22.47
2023-05-10T09:50:32.118Z,22.57
2023-05-10T09:53:04.272Z,22.72
2023-05-10T09:55:36.887Z,22.69
2023-05-10T09:58:03.435Z,22.69
2023-05-10T10:00:36.830Z,22.82
2023-05-10T10:03:04.302Z,22.77
2023-05-10T10:05:34.481Z,22.52
2023-05-10T10:08:04.339Z,22.70
2023-05-10T10:10:32.157Z,22.92
2023-05-10T10:12:59.218Z,22.95
2023-05-10T10:15:26.197Z,22.75
2023-05-10T10:17:54.328Z,22.85
2023-05-10T10:20:23.526Z,23.36
2023-05-10T10:22:50.733Z,23.54
2023-05-10T10:25:19.058Z,23.32
2023-05-10T10:27:55.037Z,23.53
2023-05-10T10:30:36.544Z,23.70
2023-05-10T10:33:31.019Z,23.99
2023-05-10T10:36:00.255Z,23.97
2023-05-10T10:38:26.959Z,23.57
2023-05-10T10:41:03.757Z,23.66
2023-05-10T10:43:31.234Z,23.36
2023-05-10T10:46:13.700Z,23.49
2023-05-10T10:48:41.370Z,23.41
2023-05-10T10:51:08.736Z,23.17
2023-05-10T10:53:38.059Z,22.44
2023-05-10T10:56:11.659Z,21.73
2023-05-10T10:58:39.585Z,21.23
2023-05-10T11:01:17.834Z,21.13
2023-05-10T11:04:11.117Z,20.82
2023-05-10T11:06:37.751Z,20.77
2023-05-10T11:09:14.000Z,20.89
2023-05-10T11:11:56.208Z,20.93
2023-05-10T11:14:23.641Z,21.11
2023-05-10T11:16:50.388Z,21.18
2023-05-10T11:19:18.447Z,21.21
2023-05-10T11:22:12.081Z,21.14
2023-05-10T11:24:38.577Z,20.81
2023-05-10T11:27:06.319Z,20.46
2023-05-10T11:29:32.868Z,19.83
2023-05-10T11:32:00.505Z,19.62
2023-05-10T11:34:32.154Z,19.69
2023-05-10T11:36:59.124Z,19.57
2023-05-10T11:39:30.847Z,19.40
2023-05-10T11:41:58.401Z,19.38
2023-05-10T11:44:30.925Z,19.03
2023-05-10T11:47:00.773Z,18.94
2023-05-10T11:49:27.306Z,19.11
2023-05-10T11:51:53.833Z,19.12
2023-05-10T11:54:20.577Z,19.26
2023-05-10T11:56:47.136Z,19.31
2023-05-10T11:59:15.715Z,19.45
2023-05-10T12:01:42.606Z,19.57
2023-05-10T12:04:09.445Z,19.62
2023-05-10T12:06:41.902Z,19.83
2023-05-10T12:09:09.249Z,19.65
2023-05-10T12:11:42.536Z,19.59
2023-05-10T12:14:10.803Z,19.46
2023-05-10T12:16:37.423Z,19.46
2023-05-10T12:19:04.156Z,19.50
2023-05-10T12:21:34.321Z,19.52
2023-05-10T12:24:03.510Z,19.59
2023-05-10T12:26:30.899Z,19.46
2023-05-10T12:29:13.754Z,19.60
2023-05-10T12:31:58.205Z,19.67
2023-05-10T12:34:31.472Z,19.76
2023-05-10T12:36:58.150Z,19.85
2023-05-10T12:39:25.725Z,19.93
2023-05-10T12:41:53.136Z,20.02
2023-05-10T12:44:19.870Z,19.99
2023-05-10T12:46:46.546Z,19.90
2023-05-10T12:49:13.077Z,19.89
2023-05-10T12:51:39.608Z,19.95
2023-05-10T12:54:31.502Z,19.93
2023-05-10T12:56:58.118Z,20.00
2023-05-10T12:59:24.706Z,20.03
2023-05-10T13:01:51.240Z,20.01
2023-05-10T13:04:18.081Z,20.12
2023-05-10T13:06:44.721Z,20.05
2023-05-10T13:09:11.504Z,20.26
2023-05-10T13:11:38.492Z,20.14
2023-05-10T13:14:05.276Z,20.02
2023-05-10T13:16:33.391Z,20.11
2023-05-10T13:19:00.346Z,20.17
2023-05-10T13:21:27.600Z,20.15
2023-05-10T13:23:54.204Z,20.23
2023-05-10T13:26:21.075Z,20.30
2023-05-10T13:28:47.578Z,20.28
2023-05-10T13:31:14.151Z,20.25
2023-05-10T13:33:40.895Z,20.33
2023-05-10T13:36:07.608Z,20.24
2023-05-10T13:38:34.139Z,20.24
2023-05-10T13:41:00.961Z,20.26
2023-05-10T13:43:27.720Z,20.24
2023-05-10T13:45:54.308Z,20.46
2023-05-10T13:48:20.923Z,20.38
2023-05-10T13:50:48.001Z,20.28
2023-05-10T13:53:15.359Z,20.26
2023-05-10T13:55:42.264Z,20.22
2023-05-10T13:58:08.793Z,19.95
2023-05-10T14:00:35.328Z,19.91
2023-05-10T14:03:02.044Z,20.15
2023-05-10T14:05:28.874Z,20.19
2023-05-10T14:07:55.855Z,20.15
2023-05-10T14:10:22.474Z,20.03
2023-05-10T14:12:49.138Z,20.10
2023-05-10T14:15:15.858Z,20.14
2023-05-10T14:17:42.616Z,20.02
2023-05-10T14:20:09.685Z,19.95
2023-05-10T14:22:36.423Z,19.76
2023-05-10T14:25:03.067Z,19.89
2023-05-10T14:27:30.041Z,19.97
2023-05-10T14:29:56.628Z,19.63
2023-05-10T14:32:23.519Z,19.63
2023-05-10T14:34:50.053Z,19.36
2023-05-10T14:37:17.189Z,19.16
2023-05-10T14:39:43.770Z,19.43
2023-05-10T14:42:10.295Z,19.45
2023-05-10T14:44:36.963Z,19.45
2023-05-10T14:47:03.485Z,19.48
2023-05-10T14:49:30.167Z,19.44
2023-05-10T14:51:56.930Z,19.46
2023-05-10T14:54:23.527Z,19.51
2023-05-10T14:56:50.959Z,19.51
2023-05-10T14:59:17.807Z,19.45
2023-05-10T15:01:45.181Z,19.67
2023-05-10T15:04:13.863Z,19.65
2023-05-10T15:06:40.844Z,19.41
2023-05-10T15:09:07.407Z,19.63
2023-05-10T15:11:34.038Z,19.67
2023-05-10T15:14:00.787Z,19.69
2023-05-10T15:16:27.566Z,19.50
2023-05-10T15:18:54.173Z,19.54
2023-05-10T15:21:20.771Z,19.64
2023-05-10T15:23:47.433Z,19.66
2023-05-10T15:26:13.957Z,19.66
2023-05-10T15:28:40.696Z,19.59
2023-05-10T15:31:07.322Z,19.51
2023-05-10T15:33:33.885Z,19.20
2023-05-10T15:36:00.436Z,19.32
2023-05-10T15:38:27.027Z,19.18
2023-05-10T15:40:58.476Z,19.19
2023-05-10T15:43:25.182Z,19.34
2023-05-10T15:45:51.977Z,19.36
2023-05-10T15:48:18.480Z,19.48
2023-05-10T15:50:45.261Z,19.58
2023-05-10T15:53:11.817Z,19.50
2023-05-10T15:55:38.371Z,19.62
2023-05-10T15:58:04.935Z,19.58
2023-05-10T16:00:31.614Z,19.50
2023-05-10T16:02:58.323Z,19.34
2023-05-10T16:05:27.359Z,18.80
2023-05-10T16:07:54.942Z,19.16
2023-05-10T16:10:21.491Z,19.15
2023-05-10T16:12:48.186Z,19.21
2023-05-10T16:15:14.935Z,19.29
2023-05-10T16:17:41.907Z,19.31
2023-05-10T16:20:08.856Z,19.30
2023-05-10T16:22:35.805Z,19.20
2023-05-10T16:25:02.418Z,19.26
2023-05-10T16:27:30.349Z,19.27
2023-05-10T16:29:56.999Z,19.20
2023-05-10T16:32:23.642Z,19.19
2023-05-10T16:34:50.381Z,19.29
2023-05-10T16:37:17.064Z,19.26
2023-05-10T16:39:43.824Z,19.30
2023-05-10T16:42:10.352Z,19.37
2023-05-10T16:44:36.958Z,19.39
2023-05-10T16:47:03.490Z,19.36
2023-05-10T16:49:30.012Z,19.29
2023-05-10T16:51:56.838Z,19.34
2023-05-10T16:54:23.508Z,19.36
2023-05-10T16:56:50.077Z,19.48
2023-05-10T16:59:17.496Z,19.24
2023-05-10T17:01:44.845Z,19.16
2023-05-10T17:04:11.525Z,19.10
2023-05-10T17:06:38.486Z,19.10
2023-05-10T17:09:05.735Z,19.11
2023-05-10T17:11:32.659Z,19.24
2023-05-10T17:13:59.648Z,19.18
2023-05-10T17:16:26.902Z,18.79
2023-05-10T17:18:53.538Z,18.63
2023-05-10T17:21:20.363Z,18.81
2023-05-10T17:23:46.871Z,18.91
2023-05-10T17:26:13.436Z,18.87
2023-05-10T17:28:39.947Z,18.77
2023-05-10T17:31:06.681Z,18.85
2023-05-10T17:33:33.280Z,18.69
2023-05-10T17:35:59.804Z,18.81
2023-05-10T17:38:26.336Z,18.77
2023-05-10T17:40:52.884Z,18.64
2023-05-10T17:43:20.138Z,18.72
2023-05-10T17:45:49.308Z,18.69
2023-05-10T17:48:15.885Z,18.65
2023-05-10T17:50:43.439Z,18.68
2023-05-10T17:53:10.411Z,18.68
2023-05-10T17:55:40.828Z,18.70
2023-05-10T17:58:07.527Z,18.67
2023-05-10T18:00:35.821Z,18.80
2023-05-10T18:03:03.289Z,18.63
2023-05-10T18:05:30.327Z,18.60
2023-05-10T18:07:57.047Z,18.41
2023-05-10T18:10:24.844Z,18.38
2023-05-10T18:12:52.295Z,18.47
2023-05-10T18:15:18.921Z,18.38
2023-05-10T18:17:45.568Z,18.44
2023-05-10T18:20:12.954Z,18.33
2023-05-10T18:22:39.876Z,18.43
2023-05-10T18:25:07.023Z,18.51
2023-05-10T18:27:34.288Z,18.36
2023-05-10T18:30:00.815Z,18.60
2023-05-10T18:32:27.971Z,18.55
2023-05-10T18:34:55.794Z,18.33
2023-05-10T18:37:22.830Z,18.16
2023-05-10T18:39:49.859Z,18.23
2023-05-10T18:42:16.428Z,18.22
2023-05-10T18:44:42.938Z,18.25
2023-05-10T18:47:09.444Z,18.29
2023-05-10T18:49:35.964Z,18.25
2023-05-10T18:52:02.497Z,18.38
2023-05-10T18:54:29.930Z,18.23
2023-05-10T18:56:58.455Z,18.27
2023-05-10T18:59:25.597Z,18.39
2023-05-10T19:01:53.170Z,18.31
2023-05-10T19:04:21.783Z,18.45
2023-05-10T19:06:48.421Z,18.50
2023-05-10T19:09:14.979Z,18.56
2023-05-10T19:11:43.137Z,18.50
2023-05-10T19:14:09.750Z,18.44
2023-05-10T19:16:37.062Z,18.47
2023-05-10T19:19:03.998Z,18.42
2023-05-10T19:21:31.508Z,18.46
2023-05-10T19:23:58.769Z,18.48
2023-05-10T19:26:25.287Z,18.46
2023-05-10T19:28:52.449Z,18.54
2023-05-10T19:31:20.124Z,18.38
2023-05-10T19:33:47.178Z,18.46
2023-05-10T19:36:13.802Z,18.33
2023-05-10T19:38:40.598Z,18.51
2023-05-10T19:41:07.204Z,18.50
2023-05-10T19:43:37.625Z,18.45
2023-05-10T19:46:04.540Z,18.46
2023-05-10T19:48:31.664Z,18.52
2023-05-10T19:51:03.366Z,18.51
2023-05-10T19:53:30.107Z,18.47
2023-05-10T19:55:56.717Z,18.49
2023-05-10T19:58:23.555Z,18.49
2023-05-10T20:00:50.152Z,18.33
2023-05-10T20:03:16.804Z,18.35
2023-05-10T20:05:43.427Z,18.29
2023-05-10T20:08:10.025Z,18.25
2023-05-10T20:10:36.596Z,18.31
2023-05-10T20:13:03.130Z,18.32
2023-05-10T20:15:29.848Z,18.43
2023-05-10T20:17:56.605Z,18.48
2023-05-10T20:20:23.592Z,18.47
2023-05-10T20:22:50.608Z,18.44
2023-05-10T20:25:18.355Z,18.36
2023-05-10T20:27:45.407Z,18.36
2023-05-10T20:30:12.296Z,18.28
2023-05-10T20:32:39.269Z,18.40
2023-05-10T20:35:07.043Z,18.36
2023-05-10T20:37:33.892Z,18.50
2023-05-10T20:40:00.506Z,18.41
2023-05-10T20:42:27.130Z,18.44
2023-05-10T20:44:53.688Z,18.45
2023-05-10T20:47:20.362Z,18.38
2023-05-10T20:49:46.968Z,18.42
2023-05-10T20:52:13.789Z,18.43
2023-05-10T20:54:40.642Z,18.30
2023-05-10T20:57:07.432Z,18.30
2023-05-10T20:59:34.162Z,18.38
2023-05-10T21:02:01.151Z,18.31
2023-05-10T21:04:27.936Z,18.27
2023-05-10T21:06:56.048Z,18.28
2023-05-10T21:09:22.797Z,18.18
2023-05-10T21:11:50.694Z,18.15
2023-05-10T21:14:17.221Z,17.98
2023-05-10T21:16:43.873Z,17.92
2023-05-10T21:19:10.531Z,17.90
2023-05-10T21:21:37.180Z,18.05
2023-05-10T21:24:04.102Z,18.05
2023-05-10T21:26:31.293Z,18.07
2023-05-10T21:28:59.190Z,18.02
2023-05-10T21:31:25.993Z,18.00
2023-05-10T21:33:52.595Z,18.00
2023-05-10T21:36:19.247Z,17.89
2023-05-10T21:38:46.365Z,17.90
2023-05-10T21:41:12.975Z,17.89
2023-05-10T21:43:39.473Z,17.88
2023-05-10T21:46:07.125Z,17.79
2023-05-10T21:48:33.799Z,17.80
2023-05-10T21:51:01.524Z,17.87
2023-05-10T21:53:28.832Z,17.90
2023-05-10T21:55:56.229Z,17.85
2023-05-10T21:58:23.051Z,17.87
2023-05-10T22:00:49.755Z,17.69
2023-05-10T22:03:16.419Z,17.61
2023-05-10T22:05:43.088Z,17.65
2023-05-10T22:08:09.627Z,17.65
2023-05-10T22:10:36.227Z,17.66
2023-05-10T22:13:03.169Z,17.76
2023-05-10T22:15:31.144Z,17.73
2023-05-10T22:17:57.884Z,17.52
2023-05-10T22:20:24.448Z,17.58
2023-05-10T22:22:51.189Z,17.50
2023-05-10T22:25:17.825Z,17.51
2023-05-10T22:27:44.420Z,17.48
2023-05-10T22:30:11.323Z,17.45
2023-05-10T22:32:38.078Z,17.47
2023-05-10T22:35:04.912Z,17.28
2023-05-10T22:37:31.522Z,17.33
2023-05-10T22:39:58.051Z,17.30
2023-05-10T22:42:24.602Z,17.25
2023-05-10T22:44:51.288Z,17.36
2023-05-10T22:47:17.819Z,17.13
2023-05-10T22:49:44.344Z,17.16
2023-05-10T22:52:11.008Z,17.19
2023-05-10T22:54:37.548Z,17.06
2023-05-10T22:57:04.491Z,17.13
2023-05-10T22:59:31.529Z,17.06
2023-05-10T23:01:58.269Z,17.23
2023-05-10T23:04:25.027Z,17.17
2023-05-10T23:06:51.772Z,17.17
2023-05-10T23:09:18.459Z,17.00
2023-05-10T23:11:45.025Z,17.10
2023-05-10T23:14:11.859Z,17.22
2023-05-10T23:16:38.456Z,17.00
2023-05-10T23:19:05.146Z,17.15
2023-05-10T23:21:32.281Z,17.14
2023-05-10T23:23:59.085Z,17.21
2023-05-10T23:26:25.813Z,17.11
2023-05-10T23:28:52.429Z,17.19
2023-05-10T23:31:18.972Z,17.10
2023-05-10T23:33:45.573Z,17.06
2023-05-10T23:36:12.345Z,17.04
2023-05-10T23:38:39.585Z,17.09
2023-05-10T23:41:06.187Z,16.95
2023-05-10T23:43:32.817Z,16.89
2023-05-10T23:45:59.536Z,16.93
2023-05-10T23:48:26.161Z,16.87
2023-05-10T23:50:52.701Z,16.85
2023-05-10T23:53:19.240Z,16.98
2023-05-10T23:55:45.834Z,16.98
2023-05-10T23:58:12.467Z,16.82
